Overview Statistics Trail Chart Weather Telemetry Raw packets
 

This is the latest recevied weather packets stored in our database for station/object KO4DYK. If no packets are shown the sender has not sent any weather packets the latest 10 day(s).

<< 17 18 19 20 21 22 23 >>
Time Temp. Humidity Pressure Rain* Wind** Luminosity Snow
1788536895 36.67° C 58% 1018.4 hPa 0 mm - 462 W/m² -
1788536589 36.67° C 57% 1018.4 hPa 0 mm - 409 W/m² -
1788536285 35.56° C 59% 1018.3 hPa 0 mm - 526 W/m² -
1788535980 35° C 60% 1018.3 hPa 0 mm - 514 W/m² -
1788535677 35° C 62% 1018.2 hPa 0 mm - 432 W/m² -
1788535371 35° C 62% 1018.2 hPa 0 mm - 409 W/m² -
1788535066 35° C 62% 1018.2 hPa 0 mm - 507 W/m² -
1788534765 34.44° C 66% 1018.2 hPa 0 mm - 463 W/m² -
1788534462 35° C 64% 1018.3 hPa 0 mm - 438 W/m² -
1788534156 35° C 67% 1018.1 hPa 0 mm - 422 W/m² -
1788533854 33.89° C 70% 1018.3 hPa 0 mm - 416 W/m² -
1788533550 33.89° C 70% 1018.2 hPa 0 mm - 347 W/m² -
1788533246 35.56° C 67% 1018.1 hPa 0 mm - 366 W/m² -
1788532941 35° C 67% 1018.1 hPa 0 mm - 398 W/m² -
1788532637 34.44° C 65% 1018.1 hPa 0 mm - 397 W/m² -
1788532334 33.33° C 67% 1018.1 hPa 0 mm - 350 W/m² -
1788532030 33.89° C 68% 1018 hPa 0 mm - 325 W/m² -
1788531725 33.89° C 68% 1018 hPa 0 mm - 315 W/m² -
1788531425 33.33° C 70% 1018 hPa 0 mm - 298 W/m² -
1788531120 32.78° C 75% 1017.9 hPa 0 mm - 281 W/m² -
1788530816 32.22° C 75% 1017.9 hPa 0 mm - 240 W/m² -
1788530511 31.11° C 77% 1018 hPa 0 mm - 251 W/m² -
1788530210 30.56° C 80% 1018.1 hPa 0 mm - 252 W/m² -
1788529906 29.44° C 81% 1018 hPa 0 mm - 233 W/m² -
1788529601 28.89° C 82% 1018 hPa 0 mm - 185 W/m² -

* Rain latest hour (hover to see other rain measurements)
** Current wind speed in m/s (hover to see current wind gust speed)